Time;durP1;ratioP1;P1;durP2;ratioP2;P2;SDS_P1;SDS_P2;PMS_P1;PMS_P2;Temp;Humidity;BMP_temperature;BMP_pressure;BME280_temperature;BME280_humidity;BME280_pressure;Samples;Min_cycle;Max_cycle;Signal;HPM_P1;HPM_P2
2022/07/09 00:02:10;;;;;;;1.30;1.30;;;22.60;68.00;;;;;;5071134;28;44044;-70
2022/07/09 00:04:38;;;;;;;1.30;1.30;;;22.60;68.20;;;;;;5072065;28;43958;-70
2022/07/09 00:07:06;;;;;;;1.10;1.10;;;22.50;68.40;;;;;;5071131;28;44005;-68
2022/07/09 00:09:34;;;;;;;1.30;1.30;;;22.50;68.70;;;;;;5070671;28;43935;-70
2022/07/09 00:12:04;;;;;;;1.20;1.20;;;22.40;68.70;;;;;;5071141;28;43912;-71
2022/07/09 00:14:32;;;;;;;1.20;1.20;;;22.40;68.80;;;;;;5071774;28;44010;-70
2022/07/09 00:17:00;;;;;;;1.10;1.10;;;22.40;68.90;;;;;;5070911;28;44058;-71
2022/07/09 00:19:28;;;;;;;1.20;1.20;;;22.40;69.00;;;;;;5071084;28;43719;-70
2022/07/09 00:21:55;;;;;;;1.20;1.20;;;22.40;69.10;;;;;;5069746;28;43940;-70
2022/07/09 00:24:23;;;;;;;1.30;1.30;;;22.30;69.00;;;;;;5072271;28;44013;-70
2022/07/09 00:26:51;;;;;;;1.20;1.20;;;22.30;69.10;;;;;;5071076;28;43823;-69
2022/07/09 00:29:21;;;;;;;1.20;1.20;;;22.30;70.30;;;;;;5069403;28;44622;-71
2022/07/09 00:31:49;;;;;;;1.23;1.23;;;22.30;70.30;;;;;;5070989;28;43967;-70
2022/07/09 00:34:17;;;;;;;1.20;1.20;;;22.40;70.10;;;;;;5071177;28;44027;-70
2022/07/09 00:36:45;;;;;;;1.10;1.10;;;22.50;69.70;;;;;;5070367;28;43915;-70
2022/07/09 00:39:13;;;;;;;1.20;1.20;;;22.70;69.30;;;;;;5070696;28;44014;-69
2022/07/09 00:41:41;;;;;;;1.20;1.17;;;22.80;68.70;;;;;;5070463;28;44003;-70
2022/07/09 00:44:09;;;;;;;1.10;1.10;;;22.90;68.30;;;;;;5069533;28;43996;-71
2022/07/09 00:46:38;;;;;;;1.10;1.10;;;23.00;67.80;;;;;;5070682;28;44045;-70
2022/07/09 00:49:06;;;;;;;1.10;1.10;;;23.20;67.50;;;;;;5068642;28;44767;-69
2022/07/09 00:51:34;;;;;;;1.17;1.17;;;23.30;67.10;;;;;;5070194;28;43353;-70
2022/07/09 00:54:02;;;;;;;1.20;1.20;;;23.40;66.70;;;;;;5070589;28;43878;-70
2022/07/09 00:56:30;;;;;;;1.20;1.20;;;23.50;66.40;;;;;;5069774;28;44005;-71
2022/07/09 00:58:58;;;;;;;1.00;1.00;;;23.50;66.30;;;;;;5069988;28;43908;-70
2022/07/09 01:01:27;;;;;;;1.30;1.30;;;23.40;66.40;;;;;;5070149;28;44105;-70
2022/07/09 01:03:56;;;;;;;1.20;1.20;;;23.30;66.80;;;;;;5070187;28;43892;-70
2022/07/09 01:06:24;;;;;;;1.10;1.10;;;23.10;67.00;;;;;;5069675;28;43925;-69
2022/07/09 01:08:52;;;;;;;1.20;1.20;;;22.90;67.20;;;;;;5070012;28;43912;-71
2022/07/09 01:11:20;;;;;;;1.37;1.30;;;22.80;67.60;;;;;;5069980;28;43948;-70
2022/07/09 01:13:48;;;;;;;1.00;1.00;;;22.70;67.90;;;;;;5069222;28;43369;-71
2022/07/09 01:16:16;;;;;;;1.30;1.30;;;22.60;68.20;;;;;;5070217;28;43971;-70
2022/07/09 01:18:45;;;;;;;1.17;1.17;;;22.60;68.50;;;;;;5069220;28;44113;-70
2022/07/09 01:21:15;;;;;;;1.10;1.10;;;22.50;68.70;;;;;;5068628;28;43872;-70
2022/07/09 01:23:43;;;;;;;1.30;1.30;;;22.40;68.70;;;;;;5068605;28;43573;-70
2022/07/09 01:26:11;;;;;;;1.03;1.03;;;22.40;68.90;;;;;;5069244;28;45110;-69
2022/07/09 01:28:39;;;;;;;1.10;1.10;;;22.40;69.00;;;;;;5069677;28;43911;-69
2022/07/09 01:31:07;;;;;;;1.10;1.10;;;22.40;69.10;;;;;;5069595;28;43415;-71
2022/07/09 01:33:35;;;;;;;1.20;1.20;;;22.30;69.10;;;;;;5070333;28;43991;-70
2022/07/09 01:36:03;;;;;;;1.10;1.10;;;22.30;69.10;;;;;;5068950;28;43932;-71
2022/07/09 01:38:32;;;;;;;1.30;1.30;;;22.30;69.20;;;;;;5068222;28;44072;-70
2022/07/09 01:41:01;;;;;;;1.20;1.20;;;22.30;70.00;;;;;;5068151;28;43421;-71
2022/07/09 01:43:30;;;;;;;1.10;1.10;;;22.30;70.60;;;;;;5069958;28;43406;-70
2022/07/09 01:46:00;;;;;;;1.10;1.10;;;22.40;70.40;;;;;;5069334;28;44038;-71
2022/07/09 01:48:28;;;;;;;1.00;1.00;;;22.50;70.10;;;;;;5068600;28;44057;-70
2022/07/09 01:50:58;;;;;;;1.00;1.00;;;22.60;69.60;;;;;;5068250;28;43873;-69
2022/07/09 01:53:26;;;;;;;1.40;1.40;;;22.70;69.10;;;;;;5068094;28;43990;-70
2022/07/09 01:55:55;;;;;;;1.00;1.00;;;22.90;68.60;;;;;;5068912;28;43926;-70
2022/07/09 01:58:23;;;;;;;1.10;1.10;;;23.00;68.10;;;;;;5069269;28;44018;-71
2022/07/09 02:00:51;;;;;;;1.10;1.10;;;23.10;67.70;;;;;;5069674;28;43364;-70
2022/07/09 02:03:19;;;;;;;1.00;1.00;;;23.20;67.20;;;;;;5069576;28;43944;-70
2022/07/09 02:05:47;;;;;;;1.10;1.10;;;23.40;67.00;;;;;;5069060;28;43996;-72
2022/07/09 02:08:16;;;;;;;1.17;1.17;;;23.40;66.60;;;;;;5068725;28;43900;-70
2022/07/09 02:10:45;;;;;;;1.20;1.20;;;23.50;66.20;;;;;;5068756;28;43919;-70
2022/07/09 02:13:15;;;;;;;1.10;1.10;;;23.50;66.10;;;;;;5069428;28;43947;-70
2022/07/09 02:15:43;;;;;;;1.00;1.00;;;23.40;66.50;;;;;;5068614;28;43840;-70
2022/07/09 02:18:12;;;;;;;1.10;1.10;;;23.30;66.80;;;;;;5061922;28;43753;-70
2022/07/09 02:20:40;;;;;;;1.30;1.30;;;23.10;67.20;;;;;;5061961;28;44033;-70
2022/07/09 02:23:08;;;;;;;1.10;1.10;;;23.00;67.50;;;;;;5062561;28;43757;-70
2022/07/09 02:25:36;;;;;;;1.03;1.03;;;22.80;67.70;;;;;;5062193;28;43776;-70
2022/07/09 02:28:05;;;;;;;1.10;1.10;;;22.70;68.10;;;;;;5068580;28;43394;-69
2022/07/09 02:30:36;;;;;;;1.00;1.00;;;22.60;68.30;;;;;;5068807;28;43390;-70
2022/07/09 02:33:05;;;;;;;1.13;1.13;;;22.50;68.60;;;;;;5067586;28;44092;-69
2022/07/09 02:35:33;;;;;;;0.97;0.97;;;22.50;68.90;;;;;;5068446;28;43979;-69
2022/07/09 02:38:00;;;;;;;1.17;1.17;;;22.40;68.90;;;;;;5068707;28;43956;-71
2022/07/09 02:40:28;;;;;;;1.13;1.13;;;22.40;69.10;;;;;;5068888;28;43828;-70
2022/07/09 02:42:56;;;;;;;1.10;1.10;;;22.40;69.30;;;;;;5069410;28;43839;-69
2022/07/09 02:45:24;;;;;;;1.13;1.13;;;22.30;69.20;;;;;;5068813;28;43955;-69
2022/07/09 02:47:54;;;;;;;1.00;1.00;;;22.30;69.30;;;;;;5068755;28;43922;-70
2022/07/09 02:50:22;;;;;;;1.10;1.10;;;22.30;70.10;;;;;;5068596;28;43967;-70
2022/07/09 02:52:50;;;;;;;0.93;0.93;;;22.30;69.40;;;;;;5069521;28;43371;-71
2022/07/09 02:55:18;;;;;;;1.20;1.20;;;22.30;69.40;;;;;;5067231;28;45968;-71
2022/07/09 02:57:46;;;;;;;1.00;1.00;;;22.30;69.50;;;;;;5068472;28;43937;-71
2022/07/09 03:00:14;;;;;;;1.00;1.00;;;22.30;69.40;;;;;;5068478;28;43990;-71
2022/07/09 03:02:42;;;;;;;1.13;1.13;;;22.30;70.30;;;;;;5067452;28;43566;-70
2022/07/09 03:05:12;;;;;;;1.10;1.10;;;22.30;70.60;;;;;;5068621;28;44004;-70
2022/07/09 03:07:40;;;;;;;1.00;1.00;;;22.30;70.50;;;;;;5068474;28;43896;-70
2022/07/09 03:10:09;;;;;;;1.17;1.17;;;22.50;70.10;;;;;;5068388;28;43924;-69
2022/07/09 03:12:37;;;;;;;0.90;0.90;;;22.60;69.50;;;;;;5068621;28;43900;-70
2022/07/09 03:15:06;;;;;;;1.07;1.07;;;22.80;69.00;;;;;;5066543;28;46078;-71
2022/07/09 03:17:34;;;;;;;1.10;1.10;;;22.90;68.50;;;;;;5066433;28;43986;-70
2022/07/09 03:20:02;;;;;;;1.20;1.20;;;23.10;68.00;;;;;;5067922;28;43378;-70
2022/07/09 03:22:31;;;;;;;1.30;1.27;;;23.20;67.50;;;;;;5068531;28;44004;-70
2022/07/09 03:24:59;;;;;;;1.40;1.40;;;23.30;67.10;;;;;;5067611;28;44002;-70
2022/07/09 03:27:27;;;;;;;2.00;1.90;;;23.40;66.70;;;;;;5068074;28;43939;-70
2022/07/09 03:29:55;;;;;;;2.10;1.90;;;23.40;66.70;;;;;;5067718;28;43983;-70
2022/07/09 03:32:24;;;;;;;2.90;2.00;;;23.30;67.00;;;;;;5068472;28;43948;-69
2022/07/09 03:34:52;;;;;;;1.90;1.80;;;23.10;67.90;;;;;;5068151;28;43924;-70
2022/07/09 03:37:21;;;;;;;2.17;2.00;;;23.00;67.50;;;;;;5064064;28;44370;-71
2022/07/09 03:39:50;;;;;;;2.00;1.90;;;22.90;67.90;;;;;;5063611;28;43445;-70
2022/07/09 03:42:18;;;;;;;2.17;2.07;;;22.70;68.10;;;;;;5069077;28;43735;-70
2022/07/09 03:44:46;;;;;;;2.70;2.53;;;22.60;68.40;;;;;;5070280;28;43892;-71
2022/07/09 03:47:14;;;;;;;2.43;1.90;;;22.60;68.70;;;;;;5070650;28;44423;-71
2022/07/09 03:49:42;;;;;;;2.60;2.40;;;22.50;69.00;;;;;;5071730;28;43979;-70
2022/07/09 03:52:10;;;;;;;3.60;2.37;;;22.40;69.00;;;;;;5071913;28;43284;-69
2022/07/09 03:54:46;;;;;;;3.63;2.50;;;22.40;69.20;;;;;;5071794;28;43921;-70
2022/07/09 03:57:15;;;;;;;3.80;2.60;;;22.30;69.30;;;;;;5071637;28;43987;-70
2022/07/09 03:59:43;;;;;;;3.63;2.60;;;22.30;69.40;;;;;;5070900;28;43777;-70
2022/07/09 04:02:11;;;;;;;4.03;2.83;;;22.30;70.00;;;;;;5071110;28;43376;-70
2022/07/09 04:04:40;;;;;;;3.80;3.00;;;22.30;70.60;;;;;;5071485;28;43951;-70
2022/07/09 04:07:09;;;;;;;5.13;3.40;;;22.30;70.60;;;;;;5071309;28;43941;-70
2022/07/09 04:09:37;;;;;;;4.13;3.20;;;22.40;70.30;;;;;;5071504;28;43959;-70
2022/07/09 04:12:05;;;;;;;7.10;3.50;;;22.50;69.70;;;;;;5071923;28;43987;-69
2022/07/09 04:14:34;;;;;;;5.67;3.40;;;22.70;69.30;;;;;;5071602;28;45090;-70
2022/07/09 04:17:02;;;;;;;4.33;3.00;;;22.90;68.80;;;;;;5070809;28;43779;-70
2022/07/09 04:19:30;;;;;;;5.50;3.13;;;23.00;68.20;;;;;;5071356;28;44034;-70
2022/07/09 04:21:58;;;;;;;6.60;3.80;;;23.20;67.80;;;;;;5069983;28;43998;-70
2022/07/09 04:24:26;;;;;;;6.63;3.67;;;23.30;67.40;;;;;;5070776;28;43971;-70
2022/07/09 04:26:54;;;;;;;3.30;3.00;;;23.40;67.00;;;;;;5071453;28;43336;-70
2022/07/09 04:29:22;;;;;;;5.60;3.47;;;23.50;66.70;;;;;;5071355;28;43472;-70
2022/07/09 04:31:52;;;;;;;3.83;3.27;;;23.40;66.70;;;;;;5071790;28;43909;-69
2022/07/09 04:34:20;;;;;;;4.57;3.30;;;23.30;67.20;;;;;;5071220;28;44042;-71
2022/07/09 04:36:49;;;;;;;4.47;3.10;;;23.10;67.40;;;;;;5071362;28;43999;-69
2022/07/09 04:39:17;;;;;;;3.33;2.97;;;23.00;67.70;;;;;;5070690;28;43849;-70
2022/07/09 04:41:45;;;;;;;4.30;3.40;;;22.80;67.90;;;;;;5070955;28;43366;-70
2022/07/09 04:44:15;;;;;;;4.13;3.30;;;22.70;68.20;;;;;;5071125;28;45105;-70
2022/07/09 04:46:43;;;;;;;4.37;3.03;;;22.60;68.50;;;;;;5070722;28;44005;-70
2022/07/09 04:49:13;;;;;;;3.97;3.03;;;22.60;68.90;;;;;;5070935;28;44071;-70
2022/07/09 04:51:44;;;;;;;3.77;2.93;;;22.50;69.10;;;;;;5070970;28;43412;-70
2022/07/09 04:54:12;;;;;;;3.57;3.10;;;22.40;69.20;;;;;;5070705;28;43951;-69
2022/07/09 04:56:40;;;;;;;3.43;3.13;;;22.40;69.50;;;;;;5069239;28;43832;-71
2022/07/09 04:59:08;;;;;;;3.90;3.43;;;22.30;69.40;;;;;;5070749;28;43926;-70
2022/07/09 05:01:36;;;;;;;4.13;3.30;;;22.30;69.60;;;;;;5071288;28;43947;-70
2022/07/09 05:04:04;;;;;;;4.13;3.30;;;22.30;69.70;;;;;;5070203;28;43897;-69
2022/07/09 05:06:34;;;;;;;3.20;2.90;;;22.30;69.70;;;;;;5068967;28;45325;-71
2022/07/09 05:09:02;;;;;;;3.43;3.00;;;22.30;69.80;;;;;;5070804;28;43997;-70
2022/07/09 05:11:30;;;;;;;4.03;3.30;;;22.30;69.90;;;;;;5071029;28;43873;-70
2022/07/09 05:13:58;;;;;;;4.33;3.10;;;22.20;69.80;;;;;;5070530;28;43976;-70
2022/07/09 05:16:26;;;;;;;3.40;3.10;;;22.20;70.50;;;;;;5070286;28;44018;-71
2022/07/09 05:18:54;;;;;;;3.40;3.10;;;22.20;70.60;;;;;;5068895;28;43529;-69
2022/07/09 05:21:22;;;;;;;3.30;3.00;;;22.30;71.60;;;;;;5070698;28;43374;-69
2022/07/09 05:23:51;;;;;;;3.53;3.23;;;22.30;70.80;;;;;;5070399;28;45121;-70
2022/07/09 05:26:19;;;;;;;3.90;3.60;;;22.40;70.40;;;;;;5070744;28;43337;-70
2022/07/09 05:28:47;;;;;;;3.60;3.30;;;22.60;69.90;;;;;;5070562;28;43857;-70
2022/07/09 05:31:15;;;;;;;3.50;3.20;;;22.70;69.30;;;;;;5070951;28;43467;-70
2022/07/09 05:34:01;;;;;;;3.27;3.00;;;22.90;68.70;;;;;;5070471;28;44801;-70
2022/07/09 05:36:29;;;;;;;3.40;3.10;;;23.10;68.20;;;;;;5070175;28;43884;-70
2022/07/09 05:38:59;;;;;;;3.27;3.07;;;23.20;67.80;;;;;;5070194;28;43958;-70
2022/07/09 05:41:27;;;;;;;3.47;3.17;;;23.30;67.50;;;;;;5068400;28;43935;-70
2022/07/09 05:43:55;;;;;;;3.30;2.97;;;23.40;67.00;;;;;;5069949;28;43909;-70
2022/07/09 05:46:23;;;;;;;2.93;2.73;;;23.50;66.70;;;;;;5068341;28;45146;-70
2022/07/09 05:48:52;;;;;;;3.47;3.17;;;23.40;66.70;;;;;;5069988;28;44043;-70
2022/07/09 05:51:20;;;;;;;3.53;2.93;;;23.30;67.00;;;;;;5070212;28;43962;-70
2022/07/09 05:53:48;;;;;;;3.07;2.87;;;23.20;67.40;;;;;;5070139;28;43889;-71
2022/07/09 05:56:17;;;;;;;3.40;3.20;;;23.00;67.70;;;;;;5070165;28;44051;-70
2022/07/09 05:58:45;;;;;;;3.60;2.90;;;22.90;68.00;;;;;;5069722;28;43948;-71
2022/07/09 06:01:13;;;;;;;3.13;2.80;;;22.70;68.30;;;;;;5070425;28;43944;-70
2022/07/09 06:03:42;;;;;;;2.87;2.67;;;22.70;69.40;;;;;;5068936;28;45078;-70
2022/07/09 06:06:11;;;;;;;2.93;2.73;;;22.60;68.90;;;;;;5069585;28;43902;-71
2022/07/09 06:08:39;;;;;;;3.07;2.77;;;22.50;69.10;;;;;;5069358;28;43314;-70
2022/07/09 06:11:07;;;;;;;2.70;2.50;;;22.40;69.30;;;;;;5070205;28;44050;-70
2022/07/09 06:13:40;;;;;;;2.80;2.60;;;22.40;69.50;;;;;;5069228;28;44065;-70
2022/07/09 06:16:08;;;;;;;3.07;2.87;;;22.30;69.60;;;;;;5069343;28;44146;-71
2022/07/09 06:18:36;;;;;;;2.93;2.73;;;22.30;69.70;;;;;;5069685;28;43831;-70
2022/07/09 06:21:05;;;;;;;3.07;2.87;;;22.30;69.80;;;;;;5069491;28;43799;-70
2022/07/09 06:23:33;;;;;;;3.17;2.87;;;22.30;70.60;;;;;;5067697;28;45246;-70
2022/07/09 06:26:01;;;;;;;2.83;2.63;;;22.30;71.00;;;;;;5069660;28;43999;-70
2022/07/09 06:28:29;;;;;;;2.93;2.83;;;22.30;70.90;;;;;;5069645;28;44371;-69
2022/07/09 06:30:59;;;;;;;3.07;2.87;;;22.40;70.60;;;;;;5069181;28;43998;-71
2022/07/09 06:33:27;;;;;;;3.00;2.80;;;22.50;70.10;;;;;;5067470;28;45997;-70
2022/07/09 06:35:55;;;;;;;3.70;3.07;;;22.60;69.50;;;;;;5069057;28;43925;-70
2022/07/09 06:38:22;;;;;;;3.00;2.80;;;22.80;69.00;;;;;;5069558;28;43345;-70
2022/07/09 06:40:50;;;;;;;3.40;3.10;;;23.00;68.60;;;;;;5069195;28;43420;-69
2022/07/09 06:43:18;;;;;;;2.80;2.70;;;23.10;68.20;;;;;;5068520;28;43612;-70
2022/07/09 06:45:53;;;;;;;2.70;2.50;;;23.20;67.60;;;;;;5067290;28;43908;-70
2022/07/09 06:48:22;;;;;;;3.07;2.87;;;23.30;67.30;;;;;;5068880;28;43994;-71
2022/07/09 06:50:50;;;;;;;3.10;2.90;;;23.40;67.00;;;;;;5069221;28;43368;-71
2022/07/09 06:53:18;;;;;;;2.73;2.57;;;23.40;67.00;;;;;;5067064;28;45300;-70
2022/07/09 06:55:46;;;;;;;2.60;2.40;;;23.30;67.30;;;;;;5068599;28;43397;-71
2022/07/09 06:58:14;;;;;;;3.00;2.67;;;23.20;67.70;;;;;;5068391;28;43335;-70
2022/07/09 07:00:42;;;;;;;2.90;2.67;;;23.00;67.90;;;;;;5068838;28;43746;-70
2022/07/09 07:03:11;;;;;;;2.30;2.20;;;22.80;68.00;;;;;;5068468;28;43883;-69
2022/07/09 07:05:40;;;;;;;2.73;2.53;;;22.70;68.50;;;;;;5068328;28;43976;-70
2022/07/09 07:08:08;;;;;;;2.40;2.30;;;22.60;68.70;;;;;;5065929;28;44065;-70
2022/07/09 07:10:36;;;;;;;2.30;2.20;;;22.50;69.00;;;;;;5067204;28;43876;-71
2022/07/09 07:13:10;;;;;;;2.50;2.40;;;22.50;69.40;;;;;;5068485;28;43954;-69
2022/07/09 07:15:38;;;;;;;2.40;2.30;;;22.40;69.00;;;;;;5068232;28;44018;-70
2022/07/09 07:18:06;;;;;;;2.70;2.57;;;22.30;69.10;;;;;;5068238;28;43346;-70
2022/07/09 07:20:34;;;;;;;2.10;2.10;;;22.30;69.20;;;;;;5072470;28;43356;-70
2022/07/09 07:23:04;;;;;;;2.43;2.33;;;22.30;69.30;;;;;;5072454;28;43895;-71
2022/07/09 07:25:31;;;;;;;2.07;2.00;;;22.30;69.40;;;;;;5072195;28;43881;-70
2022/07/09 07:28:01;;;;;;;2.60;2.50;;;22.20;69.40;;;;;;5072057;28;44050;-70
2022/07/09 07:30:32;;;;;;;2.30;2.20;;;22.20;69.50;;;;;;5071913;28;43585;-70
2022/07/09 07:33:00;;;;;;;2.30;2.20;;;22.20;69.50;;;;;;5071693;28;44051;-71
2022/07/09 07:35:28;;;;;;;2.43;2.33;;;22.20;69.60;;;;;;5071935;28;44042;-70
2022/07/09 07:37:56;;;;;;;2.40;2.10;;;22.20;70.50;;;;;;5071722;28;43360;-69
2022/07/09 07:40:26;;;;;;;2.20;2.10;;;22.20;71.50;;;;;;5072419;28;43877;-70
2022/07/09 07:42:54;;;;;;;2.37;2.27;;;22.30;70.60;;;;;;5065428;28;43583;-71
2022/07/09 07:45:22;;;;;;;2.13;2.10;;;22.40;70.20;;;;;;5058420;28;44037;-70
2022/07/09 07:47:50;;;;;;;2.20;2.10;;;22.50;69.90;;;;;;5065528;28;43450;-70
2022/07/09 07:50:18;;;;;;;2.20;2.10;;;22.60;69.30;;;;;;5065544;28;43992;-71
2022/07/09 07:52:46;;;;;;;2.20;2.10;;;22.80;68.80;;;;;;5065082;28;43979;-70
2022/07/09 07:55:14;;;;;;;2.20;2.10;;;23.00;68.40;;;;;;5065305;28;43347;-70
2022/07/09 07:57:44;;;;;;;2.03;2.03;;;23.10;68.00;;;;;;5065091;28;43376;-70
2022/07/09 08:00:12;;;;;;;2.23;2.13;;;23.20;67.60;;;;;;5071824;28;43873;-69
2022/07/09 08:02:40;;;;;;;2.10;2.00;;;23.30;67.20;;;;;;5068639;28;43968;-70
2022/07/09 08:05:09;;;;;;;2.13;2.03;;;23.40;66.90;;;;;;5071014;28;44271;-71
2022/07/09 08:07:37;;;;;;;2.33;2.23;;;23.50;66.60;;;;;;5071162;28;44147;-71
2022/07/09 08:10:06;;;;;;;2.00;1.90;;;23.50;66.50;;;;;;5071520;28;44054;-70
2022/07/09 08:12:34;;;;;;;1.87;1.87;;;23.40;66.70;;;;;;5069693;28;46047;-70
2022/07/09 08:15:04;;;;;;;2.10;2.00;;;23.30;67.20;;;;;;5071160;28;43776;-70
2022/07/09 08:17:32;;;;;;;2.23;2.13;;;23.10;67.40;;;;;;5071252;28;43984;-70
2022/07/09 08:20:00;;;;;;;2.10;2.00;;;22.90;67.70;;;;;;5071406;28;43905;-70
2022/07/09 08:22:28;;;;;;;1.83;1.73;;;22.80;68.00;;;;;;5070708;28;43676;-71
2022/07/09 08:24:56;;;;;;;1.80;1.80;;;22.60;68.30;;;;;;5071540;28;43963;-71
2022/07/09 08:27:24;;;;;;;2.20;2.10;;;22.50;68.70;;;;;;5071004;28;44015;-70
2022/07/09 08:29:52;;;;;;;2.00;1.90;;;22.50;69.00;;;;;;5071262;28;43974;-71
2022/07/09 08:32:21;;;;;;;2.20;2.10;;;22.40;69.10;;;;;;5071227;28;43837;-70
2022/07/09 08:34:49;;;;;;;1.80;1.70;;;22.40;69.40;;;;;;5071075;28;43948;-70
2022/07/09 08:37:17;;;;;;;1.90;1.90;;;22.30;69.40;;;;;;5071097;28;43942;-70
2022/07/09 08:39:45;;;;;;;2.10;2.00;;;22.20;69.50;;;;;;5071163;28;44149;-70
2022/07/09 08:42:13;;;;;;;1.80;1.80;;;22.20;69.70;;;;;;5069107;28;45605;-70
2022/07/09 08:44:42;;;;;;;1.73;1.73;;;22.20;69.80;;;;;;5071217;28;43904;-69
2022/07/09 08:47:11;;;;;;;2.07;1.97;;;22.20;69.80;;;;;;5070937;28;43327;-70
2022/07/09 08:49:40;;;;;;;1.77;1.77;;;22.20;69.90;;;;;;5069399;28;44010;-71
2022/07/09 08:52:08;;;;;;;1.60;1.60;;;22.20;69.90;;;;;;5070286;28;44972;-70
2022/07/09 08:54:37;;;;;;;2.20;2.10;;;22.10;70.50;;;;;;5070475;28;44515;-70
2022/07/09 08:57:06;;;;;;;1.80;1.80;;;22.20;70.70;;;;;;5070942;28;44008;-71
2022/07/09 08:59:34;;;;;;;2.00;2.00;;;22.30;70.50;;;;;;5071441;28;43888;-69
2022/07/09 09:02:05;;;;;;;1.80;1.80;;;22.40;70.10;;;;;;5070499;28;43880;-70
2022/07/09 09:04:34;;;;;;;1.90;1.90;;;22.50;69.60;;;;;;5070766;28;44123;-70
2022/07/09 09:07:14;;;;;;;2.03;1.93;;;22.60;69.20;;;;;;5069146;28;43354;-70
2022/07/09 09:09:42;;;;;;;1.70;1.70;;;22.80;68.80;;;;;;5069304;28;43470;-70
2022/07/09 09:12:11;;;;;;;1.80;1.70;;;22.90;68.30;;;;;;5069922;28;43948;-70
2022/07/09 09:14:39;;;;;;;2.00;1.90;;;23.10;67.90;;;;;;5070049;28;43381;-70
2022/07/09 09:17:09;;;;;;;1.70;1.70;;;23.10;67.40;;;;;;5070462;28;43486;-70
2022/07/09 09:19:37;;;;;;;1.87;1.77;;;23.20;67.00;;;;;;5070631;28;43896;-70
2022/07/09 09:22:05;;;;;;;1.80;1.80;;;23.30;66.80;;;;;;5069711;28;43857;-71
2022/07/09 09:24:35;;;;;;;1.83;1.73;;;23.40;66.70;;;;;;5069833;28;43400;-70
2022/07/09 09:27:03;;;;;;;1.90;1.77;;;23.30;66.60;;;;;;5069987;28;43986;-70
2022/07/09 09:29:31;;;;;;;2.00;1.90;;;23.30;66.90;;;;;;5068656;28;44105;-71
2022/07/09 09:31:59;;;;;;;1.60;1.60;;;23.10;67.20;;;;;;5070163;28;43942;-71
2022/07/09 09:34:27;;;;;;;1.80;1.80;;;22.90;67.30;;;;;;5069250;28;43881;-70
2022/07/09 09:36:55;;;;;;;1.60;1.60;;;22.80;67.70;;;;;;5069916;28;43423;-69
2022/07/09 09:39:25;;;;;;;1.80;1.80;;;22.60;68.00;;;;;;5071017;28;43389;-71
2022/07/09 09:41:54;;;;;;;1.73;1.70;;;22.60;68.40;;;;;;5068949;28;43902;-70
2022/07/09 09:44:25;;;;;;;1.60;1.60;;;22.50;68.70;;;;;;5070184;28;43633;-70
2022/07/09 09:46:53;;;;;;;1.87;1.87;;;22.40;68.80;;;;;;5070218;28;43374;-69
2022/07/09 09:49:21;;;;;;;1.60;1.60;;;22.30;68.90;;;;;;5069003;28;43974;-70
2022/07/09 09:51:52;;;;;;;1.60;1.60;;;22.30;69.00;;;;;;5069773;28;44022;-70
2022/07/09 09:54:21;;;;;;;1.40;1.40;;;22.30;69.20;;;;;;5068332;28;44001;-69
2022/07/09 09:56:49;;;;;;;1.60;1.60;;;22.30;69.40;;;;;;5070526;28;43897;-70
2022/07/09 09:59:18;;;;;;;1.60;1.60;;;22.30;69.50;;;;;;5069891;28;43888;-71
2022/07/09 10:01:46;;;;;;;1.70;1.70;;;22.20;69.40;;;;;;5069497;28;43939;-69
2022/07/09 10:04:15;;;;;;;1.50;1.50;;;22.20;69.50;;;;;;5069121;28;43885;-70
2022/07/09 10:06:44;;;;;;;1.60;1.60;;;22.20;69.50;;;;;;5062840;28;44087;-70
2022/07/09 10:09:12;;;;;;;1.60;1.60;;;22.20;69.40;;;;;;5063326;28;44016;-70
2022/07/09 10:11:41;;;;;;;1.83;1.83;;;22.20;70.50;;;;;;5063065;28;43821;-70
2022/07/09 10:14:15;;;;;;;1.60;1.60;;;22.20;70.50;;;;;;5067679;28;44423;-70
2022/07/09 10:16:44;;;;;;;1.70;1.70;;;22.30;70.20;;;;;;5063867;28;43928;-70
2022/07/09 10:19:24;;;;;;;1.50;1.50;;;22.40;69.90;;;;;;5069935;28;44015;-71
2022/07/09 10:21:52;;;;;;;1.60;1.60;;;22.50;69.60;;;;;;5069566;28;44206;-70
2022/07/09 10:24:25;;;;;;;1.57;1.57;;;22.70;69.00;;;;;;5068144;28;43651;-71
2022/07/09 10:27:03;;;;;;;1.50;1.50;;;22.80;68.50;;;;;;5069473;28;43971;-69
2022/07/09 10:29:31;;;;;;;1.93;1.83;;;22.90;68.00;;;;;;5069653;28;43994;-70
2022/07/09 10:32:01;;;;;;;1.60;1.60;;;23.10;67.80;;;;;;5069356;28;43912;-71
2022/07/09 10:34:48;;;;;;;1.50;1.50;;;23.20;67.40;;;;;;5068791;28;43934;-71
2022/07/09 10:37:16;;;;;;;1.60;1.60;;;23.30;67.00;;;;;;5069277;28;43890;-70
2022/07/09 10:39:54;;;;;;;1.63;1.53;;;23.30;66.70;;;;;;5069036;28;43396;-71
2022/07/09 10:42:23;;;;;;;1.50;1.50;;;23.40;66.20;;;;;;5068659;28;44792;-69
2022/07/09 10:44:53;;;;;;;1.50;1.50;;;23.30;66.80;;;;;;5068467;28;43980;-71
2022/07/09 10:47:22;;;;;;;1.53;1.53;;;23.20;66.80;;;;;;5068584;28;43953;-69
2022/07/09 10:49:50;;;;;;;1.70;1.70;;;23.00;67.10;;;;;;5069345;28;43907;-71
2022/07/09 10:52:18;;;;;;;1.50;1.50;;;22.90;67.40;;;;;;5068647;28;43860;-70
2022/07/09 10:54:47;;;;;;;1.30;1.30;;;22.70;67.70;;;;;;5069004;28;43388;-70
2022/07/09 10:57:15;;;;;;;1.30;1.30;;;22.70;68.10;;;;;;5069870;28;44013;-70
2022/07/09 10:59:47;;;;;;;1.50;1.40;;;22.60;68.30;;;;;;5069337;28;43959;-70
2022/07/09 11:02:22;;;;;;;1.70;1.70;;;22.50;68.50;;;;;;5067615;28;45577;-70
2022/07/09 11:04:51;;;;;;;1.40;1.40;;;22.50;68.70;;;;;;5067852;28;44742;-70
2022/07/09 11:07:21;;;;;;;1.53;1.50;;;22.40;68.80;;;;;;5068965;28;43830;-70
2022/07/09 11:09:49;;;;;;;1.80;1.80;;;22.40;68.80;;;;;;5067722;28;43940;-71
2022/07/09 11:12:17;;;;;;;1.70;1.70;;;22.40;69.10;;;;;;5069061;28;44097;-71
2022/07/09 11:14:46;;;;;;;1.83;1.80;;;22.30;69.00;;;;;;5067995;28;43421;-70
2022/07/09 11:17:17;;;;;;;2.37;2.27;;;22.30;69.10;;;;;;5068597;28;43366;-70
2022/07/09 11:19:46;;;;;;;2.03;2.03;;;22.30;69.30;;;;;;5068109;28;43836;-70
2022/07/09 11:22:15;;;;;;;2.20;2.10;;;22.30;69.30;;;;;;5068579;28;44019;-69
2022/07/09 11:24:43;;;;;;;2.27;2.17;;;22.30;69.40;;;;;;5068463;28;43439;-71
2022/07/09 11:27:11;;;;;;;2.13;2.03;;;22.30;69.40;;;;;;5067067;28;43779;-71
2022/07/09 11:29:39;;;;;;;2.50;2.40;;;22.20;69.30;;;;;;5067753;28;43494;-70
2022/07/09 11:32:07;;;;;;;2.10;1.93;;;22.20;69.80;;;;;;5068451;28;43909;-70
2022/07/09 11:34:35;;;;;;;2.20;2.20;;;22.20;70.50;;;;;;5067954;28;43393;-70
2022/07/09 11:37:09;;;;;;;2.30;2.20;;;22.30;70.40;;;;;;5068189;28;43407;-70
2022/07/09 11:39:37;;;;;;;2.60;2.40;;;22.40;70.10;;;;;;5068431;28;43770;-71
2022/07/09 11:42:05;;;;;;;2.33;2.23;;;22.50;69.80;;;;;;5061375;28;44004;-72
2022/07/09 11:44:34;;;;;;;2.10;2.10;;;22.70;69.30;;;;;;5061846;28;43938;-70
2022/07/09 11:47:06;;;;;;;1.83;1.80;;;22.80;68.60;;;;;;5061646;28;43942;-71
2022/07/09 11:49:35;;;;;;;2.43;2.27;;;23.00;68.50;;;;;;5068577;28;43393;-69
2022/07/09 11:52:05;;;;;;;1.93;1.83;;;23.10;68.00;;;;;;5067283;28;44808;-71
2022/07/09 11:54:33;;;;;;;2.37;2.17;;;23.20;67.60;;;;;;5067537;28;43908;-70
2022/07/09 11:57:01;;;;;;;2.13;2.07;;;23.30;67.20;;;;;;5067383;28;43855;-70
2022/07/09 11:59:31;;;;;;;2.00;1.90;;;23.30;67.20;;;;;;5067974;28;43411;-70
2022/07/09 12:02:00;;;;;;;2.37;2.27;;;23.30;68.00;;;;;;5066934;28;44019;-70
2022/07/09 12:04:30;;;;;;;1.70;1.70;;;23.10;67.50;;;;;;5067577;28;43896;-70
2022/07/09 12:06:58;;;;;;;1.90;1.80;;;23.00;67.70;;;;;;5070915;28;43375;-70
2022/07/09 12:09:32;;;;;;;1.80;1.70;;;22.80;67.80;;;;;;5071320;28;43762;-71
2022/07/09 12:12:00;;;;;;;2.20;2.10;;;22.70;67.80;;;;;;5070826;28;43761;-71
2022/07/09 12:14:28;;;;;;;2.00;1.90;;;22.60;68.40;;;;;;5070692;28;43923;-71
2022/07/09 12:16:57;;;;;;;1.80;1.80;;;22.50;68.70;;;;;;5071028;28;44055;-70
2022/07/09 12:19:25;;;;;;;1.77;1.77;;;22.40;68.80;;;;;;5071620;28;44386;-71
2022/07/09 12:21:53;;;;;;;1.90;1.90;;;22.40;69.10;;;;;;5071353;28;43905;-70
2022/07/09 12:24:25;;;;;;;1.90;1.90;;;22.40;69.30;;;;;;5071570;28;44140;-69
2022/07/09 12:26:55;;;;;;;2.20;2.10;;;22.30;69.40;;;;;;5071293;28;43835;-70
2022/07/09 12:29:43;;;;;;;2.27;2.17;;;22.30;69.30;;;;;;5071193;28;44112;-70
2022/07/09 12:32:11;;;;;;;1.90;1.90;;;22.30;69.40;;;;;;5070905;28;43945;-71
2022/07/09 12:34:39;;;;;;;1.57;1.57;;;22.30;70.30;;;;;;5070843;28;43853;-70
2022/07/09 12:37:07;;;;;;;1.90;1.90;;;22.20;70.50;;;;;;5070646;28;43955;-70
2022/07/09 12:39:35;;;;;;;2.00;1.97;;;22.20;70.50;;;;;;5071277;28;44066;-70
2022/07/09 12:42:05;;;;;;;1.70;1.70;;;22.30;70.50;;;;;;5070701;28;43887;-70
2022/07/09 12:44:33;;;;;;;2.03;1.93;;;22.40;70.30;;;;;;5069921;28;44126;-70
2022/07/09 12:47:00;;;;;;;1.77;1.67;;;22.50;70.00;;;;;;5063620;28;43794;-70
2022/07/09 12:49:28;;;;;;;1.73;1.73;;;22.60;69.50;;;;;;5062971;28;43925;-69
2022/07/09 12:51:56;;;;;;;1.70;1.70;;;22.80;69.00;;;;;;5063292;28;43848;-71
2022/07/09 12:54:25;;;;;;;1.80;1.80;;;22.90;68.50;;;;;;5061907;28;45005;-70
2022/07/09 12:56:55;;;;;;;1.60;1.60;;;23.00;68.90;;;;;;5063719;28;43975;-69